sensor_id;sensor_type;location;lat;lon;timestamp;P1;durP1;ratioP1;P2;durP2;ratioP2
14171;SDS011;7165;52.388;4.928;2023-12-04T00:00:01;20.60;;;16.77;;
14171;SDS011;7165;52.388;4.928;2023-12-04T00:02:29;19.67;;;15.20;;
14171;SDS011;7165;52.388;4.928;2023-12-04T00:04:56;17.57;;;15.67;;
14171;SDS011;7165;52.388;4.928;2023-12-04T00:07:23;18.67;;;15.90;;
14171;SDS011;7165;52.388;4.928;2023-12-04T00:09:51;18.60;;;14.77;;
14171;SDS011;7165;52.388;4.928;2023-12-04T00:12:18;17.97;;;14.63;;
14171;SDS011;7165;52.388;4.928;2023-12-04T00:14:45;19.20;;;15.57;;
14171;SDS011;7165;52.388;4.928;2023-12-04T00:17:12;18.13;;;14.97;;
14171;SDS011;7165;52.388;4.928;2023-12-04T00:19:38;18.73;;;14.77;;
14171;SDS011;7165;52.388;4.928;2023-12-04T00:22:05;18.17;;;15.97;;
14171;SDS011;7165;52.388;4.928;2023-12-04T00:24:32;18.00;;;14.67;;
14171;SDS011;7165;52.388;4.928;2023-12-04T00:27:00;18.33;;;15.00;;
14171;SDS011;7165;52.388;4.928;2023-12-04T00:29:26;16.67;;;14.30;;
14171;SDS011;7165;52.388;4.928;2023-12-04T00:31:53;18.43;;;15.13;;
14171;SDS011;7165;52.388;4.928;2023-12-04T00:34:22;16.40;;;14.67;;
14171;SDS011;7165;52.388;4.928;2023-12-04T00:36:48;17.40;;;13.53;;
14171;SDS011;7165;52.388;4.928;2023-12-04T00:39:15;18.00;;;14.53;;
14171;SDS011;7165;52.388;4.928;2023-12-04T00:41:42;16.77;;;14.67;;
14171;SDS011;7165;52.388;4.928;2023-12-04T00:44:10;17.83;;;14.83;;
14171;SDS011;7165;52.388;4.928;2023-12-04T00:46:37;19.43;;;16.10;;
14171;SDS011;7165;52.388;4.928;2023-12-04T00:49:03;18.20;;;15.27;;
14171;SDS011;7165;52.388;4.928;2023-12-04T00:51:36;17.20;;;14.70;;
14171;SDS011;7165;52.388;4.928;2023-12-04T00:54:03;16.27;;;13.73;;
14171;SDS011;7165;52.388;4.928;2023-12-04T00:56:30;18.43;;;14.63;;
14171;SDS011;7165;52.388;4.928;2023-12-04T00:58:57;16.90;;;14.13;;
14171;SDS011;7165;52.388;4.928;2023-12-04T01:01:25;18.53;;;14.10;;
14171;SDS011;7165;52.388;4.928;2023-12-04T01:03:52;16.67;;;13.97;;
14171;SDS011;7165;52.388;4.928;2023-12-04T01:06:22;17.03;;;13.83;;
14171;SDS011;7165;52.388;4.928;2023-12-04T01:08:49;18.17;;;13.80;;
14171;SDS011;7165;52.388;4.928;2023-12-04T01:11:16;17.67;;;14.87;;
14171;SDS011;7165;52.388;4.928;2023-12-04T01:13:45;17.80;;;15.23;;
14171;SDS011;7165;52.388;4.928;2023-12-04T01:16:11;15.20;;;13.60;;
14171;SDS011;7165;52.388;4.928;2023-12-04T01:18:40;15.77;;;13.37;;
14171;SDS011;7165;52.388;4.928;2023-12-04T01:21:06;19.20;;;14.80;;
14171;SDS011;7165;52.388;4.928;2023-12-04T01:23:33;17.60;;;15.07;;
14171;SDS011;7165;52.388;4.928;2023-12-04T01:26:00;16.97;;;13.93;;
14171;SDS011;7165;52.388;4.928;2023-12-04T01:28:27;16.90;;;14.00;;
14171;SDS011;7165;52.388;4.928;2023-12-04T01:30:54;17.40;;;15.17;;
14171;SDS011;7165;52.388;4.928;2023-12-04T01:33:21;16.70;;;13.80;;
14171;SDS011;7165;52.388;4.928;2023-12-04T01:35:49;17.70;;;15.33;;
14171;SDS011;7165;52.388;4.928;2023-12-04T01:38:16;17.40;;;15.23;;
14171;SDS011;7165;52.388;4.928;2023-12-04T01:40:42;19.57;;;15.03;;
14171;SDS011;7165;52.388;4.928;2023-12-04T01:43:09;17.93;;;14.47;;
14171;SDS011;7165;52.388;4.928;2023-12-04T01:45:36;15.93;;;13.67;;
14171;SDS011;7165;52.388;4.928;2023-12-04T01:48:03;17.40;;;15.20;;
14171;SDS011;7165;52.388;4.928;2023-12-04T01:50:31;19.70;;;15.03;;
14171;SDS011;7165;52.388;4.928;2023-12-04T01:53:01;16.73;;;14.63;;
14171;SDS011;7165;52.388;4.928;2023-12-04T01:55:28;17.20;;;14.27;;
14171;SDS011;7165;52.388;4.928;2023-12-04T01:57:56;17.97;;;14.30;;
14171;SDS011;7165;52.388;4.928;2023-12-04T02:00:24;21.77;;;15.30;;
14171;SDS011;7165;52.388;4.928;2023-12-04T02:02:51;15.53;;;13.90;;
14171;SDS011;7165;52.388;4.928;2023-12-04T02:05:18;19.13;;;14.77;;
14171;SDS011;7165;52.388;4.928;2023-12-04T02:07:46;18.47;;;15.77;;
14171;SDS011;7165;52.388;4.928;2023-12-04T02:10:15;18.17;;;15.53;;
14171;SDS011;7165;52.388;4.928;2023-12-04T02:12:41;19.93;;;15.63;;
14171;SDS011;7165;52.388;4.928;2023-12-04T02:15:08;17.73;;;14.67;;
14171;SDS011;7165;52.388;4.928;2023-12-04T02:17:35;17.63;;;15.07;;
14171;SDS011;7165;52.388;4.928;2023-12-04T02:20:03;20.60;;;16.13;;
14171;SDS011;7165;52.388;4.928;2023-12-04T02:22:31;20.77;;;15.47;;
14171;SDS011;7165;52.388;4.928;2023-12-04T02:24:59;18.53;;;15.40;;
14171;SDS011;7165;52.388;4.928;2023-12-04T02:27:27;18.37;;;14.70;;
14171;SDS011;7165;52.388;4.928;2023-12-04T02:30:00;17.43;;;14.43;;
14171;SDS011;7165;52.388;4.928;2023-12-04T02:32:33;19.03;;;16.40;;
14171;SDS011;7165;52.388;4.928;2023-12-04T02:35:04;18.30;;;15.23;;
14171;SDS011;7165;52.388;4.928;2023-12-04T02:37:34;18.83;;;16.60;;
14171;SDS011;7165;52.388;4.928;2023-12-04T02:40:03;17.07;;;15.17;;
14171;SDS011;7165;52.388;4.928;2023-12-04T02:42:31;19.67;;;16.00;;
14171;SDS011;7165;52.388;4.928;2023-12-04T02:44:58;21.30;;;15.97;;
14171;SDS011;7165;52.388;4.928;2023-12-04T02:47:25;19.43;;;15.57;;
14171;SDS011;7165;52.388;4.928;2023-12-04T02:49:51;19.20;;;16.03;;
14171;SDS011;7165;52.388;4.928;2023-12-04T02:52:19;19.97;;;16.00;;
14171;SDS011;7165;52.388;4.928;2023-12-04T02:54:45;17.73;;;15.83;;
14171;SDS011;7165;52.388;4.928;2023-12-04T02:57:14;16.87;;;14.47;;
14171;SDS011;7165;52.388;4.928;2023-12-04T02:59:40;17.43;;;14.47;;
14171;SDS011;7165;52.388;4.928;2023-12-04T03:02:07;19.17;;;16.10;;
14171;SDS011;7165;52.388;4.928;2023-12-04T03:04:34;17.93;;;15.13;;
14171;SDS011;7165;52.388;4.928;2023-12-04T03:07:01;18.47;;;15.03;;
14171;SDS011;7165;52.388;4.928;2023-12-04T03:09:28;19.90;;;15.70;;
14171;SDS011;7165;52.388;4.928;2023-12-04T03:11:54;18.37;;;15.70;;
14171;SDS011;7165;52.388;4.928;2023-12-04T03:14:23;18.63;;;15.47;;
14171;SDS011;7165;52.388;4.928;2023-12-04T03:16:50;20.30;;;15.57;;
14171;SDS011;7165;52.388;4.928;2023-12-04T03:19:17;19.20;;;16.20;;
14171;SDS011;7165;52.388;4.928;2023-12-04T03:21:44;19.27;;;15.87;;
14171;SDS011;7165;52.388;4.928;2023-12-04T03:24:10;16.57;;;14.00;;
14171;SDS011;7165;52.388;4.928;2023-12-04T03:26:37;18.10;;;14.13;;
14171;SDS011;7165;52.388;4.928;2023-12-04T03:29:04;18.33;;;15.70;;
14171;SDS011;7165;52.388;4.928;2023-12-04T03:31:32;19.10;;;15.10;;
14171;SDS011;7165;52.388;4.928;2023-12-04T03:33:59;19.23;;;15.00;;
14171;SDS011;7165;52.388;4.928;2023-12-04T03:36:26;16.93;;;14.77;;
14171;SDS011;7165;52.388;4.928;2023-12-04T03:38:52;18.90;;;15.20;;
14171;SDS011;7165;52.388;4.928;2023-12-04T03:41:19;18.87;;;15.67;;
14171;SDS011;7165;52.388;4.928;2023-12-04T03:43:47;17.33;;;15.53;;
14171;SDS011;7165;52.388;4.928;2023-12-04T03:46:14;18.30;;;14.77;;
14171;SDS011;7165;52.388;4.928;2023-12-04T03:48:42;17.57;;;15.07;;
14171;SDS011;7165;52.388;4.928;2023-12-04T03:51:08;19.53;;;15.17;;
14171;SDS011;7165;52.388;4.928;2023-12-04T03:53:35;17.93;;;15.17;;
14171;SDS011;7165;52.388;4.928;2023-12-04T03:56:02;17.13;;;15.33;;
14171;SDS011;7165;52.388;4.928;2023-12-04T03:58:30;19.70;;;15.23;;
14171;SDS011;7165;52.388;4.928;2023-12-04T04:00:57;17.87;;;15.10;;
14171;SDS011;7165;52.388;4.928;2023-12-04T04:03:24;17.47;;;14.90;;
14171;SDS011;7165;52.388;4.928;2023-12-04T04:05:52;19.07;;;15.83;;
14171;SDS011;7165;52.388;4.928;2023-12-04T04:08:19;18.80;;;14.87;;
14171;SDS011;7165;52.388;4.928;2023-12-04T04:10:46;18.77;;;13.83;;
14171;SDS011;7165;52.388;4.928;2023-12-04T04:13:13;16.70;;;14.50;;
14171;SDS011;7165;52.388;4.928;2023-12-04T04:15:39;17.00;;;14.60;;
14171;SDS011;7165;52.388;4.928;2023-12-04T04:18:07;16.27;;;14.37;;
14171;SDS011;7165;52.388;4.928;2023-12-04T04:20:33;17.73;;;15.13;;
14171;SDS011;7165;52.388;4.928;2023-12-04T04:23:01;17.67;;;15.20;;
14171;SDS011;7165;52.388;4.928;2023-12-04T04:25:28;18.10;;;14.43;;
14171;SDS011;7165;52.388;4.928;2023-12-04T04:27:55;17.83;;;14.13;;
14171;SDS011;7165;52.388;4.928;2023-12-04T04:30:22;16.63;;;14.83;;
14171;SDS011;7165;52.388;4.928;2023-12-04T04:32:48;15.67;;;13.90;;
14171;SDS011;7165;52.388;4.928;2023-12-04T04:35:15;19.67;;;15.83;;
14171;SDS011;7165;52.388;4.928;2023-12-04T04:37:42;15.87;;;14.07;;
14171;SDS011;7165;52.388;4.928;2023-12-04T04:40:10;16.43;;;14.67;;
14171;SDS011;7165;52.388;4.928;2023-12-04T04:42:37;17.00;;;14.67;;
14171;SDS011;7165;52.388;4.928;2023-12-04T04:45:05;17.77;;;14.73;;
14171;SDS011;7165;52.388;4.928;2023-12-04T04:47:32;17.83;;;15.93;;
14171;SDS011;7165;52.388;4.928;2023-12-04T04:49:59;16.90;;;14.47;;
14171;SDS011;7165;52.388;4.928;2023-12-04T04:52:25;16.10;;;14.30;;
14171;SDS011;7165;52.388;4.928;2023-12-04T04:54:52;16.53;;;14.53;;
14171;SDS011;7165;52.388;4.928;2023-12-04T04:57:20;15.87;;;13.50;;
14171;SDS011;7165;52.388;4.928;2023-12-04T04:59:47;17.47;;;14.30;;
14171;SDS011;7165;52.388;4.928;2023-12-04T05:02:14;16.27;;;13.53;;
14171;SDS011;7165;52.388;4.928;2023-12-04T05:04:40;17.93;;;14.60;;
14171;SDS011;7165;52.388;4.928;2023-12-04T05:07:07;16.57;;;13.93;;
14171;SDS011;7165;52.388;4.928;2023-12-04T05:09:34;17.23;;;15.03;;
14171;SDS011;7165;52.388;4.928;2023-12-04T05:12:01;14.53;;;12.67;;
14171;SDS011;7165;52.388;4.928;2023-12-04T05:14:29;15.37;;;13.70;;
14171;SDS011;7165;52.388;4.928;2023-12-04T05:16:56;19.20;;;14.70;;
14171;SDS011;7165;52.388;4.928;2023-12-04T05:19:23;18.03;;;15.33;;
14171;SDS011;7165;52.388;4.928;2023-12-04T05:21:50;14.93;;;13.33;;
14171;SDS011;7165;52.388;4.928;2023-12-04T05:24:16;17.07;;;14.37;;
14171;SDS011;7165;52.388;4.928;2023-12-04T05:26:43;16.27;;;12.87;;
14171;SDS011;7165;52.388;4.928;2023-12-04T05:29:10;15.43;;;13.67;;
14171;SDS011;7165;52.388;4.928;2023-12-04T05:31:38;15.87;;;13.07;;
14171;SDS011;7165;52.388;4.928;2023-12-04T05:34:05;15.37;;;13.67;;
14171;SDS011;7165;52.388;4.928;2023-12-04T05:36:32;15.03;;;13.53;;
14171;SDS011;7165;52.388;4.928;2023-12-04T05:38:58;15.20;;;13.67;;
14171;SDS011;7165;52.388;4.928;2023-12-04T05:41:25;15.03;;;13.17;;
14171;SDS011;7165;52.388;4.928;2023-12-04T05:43:52;14.33;;;12.87;;
14171;SDS011;7165;52.388;4.928;2023-12-04T05:46:19;14.53;;;13.00;;
14171;SDS011;7165;52.388;4.928;2023-12-04T05:48:47;16.30;;;14.47;;
14171;SDS011;7165;52.388;4.928;2023-12-04T05:51:14;15.40;;;12.83;;
14171;SDS011;7165;52.388;4.928;2023-12-04T05:53:41;17.07;;;13.30;;
14171;SDS011;7165;52.388;4.928;2023-12-04T05:56:08;16.23;;;13.47;;
14171;SDS011;7165;52.388;4.928;2023-12-04T05:58:35;15.20;;;13.53;;
14171;SDS011;7165;52.388;4.928;2023-12-04T06:01:02;17.00;;;12.93;;
14171;SDS011;7165;52.388;4.928;2023-12-04T06:03:31;14.33;;;11.47;;
14171;SDS011;7165;52.388;4.928;2023-12-04T06:05:59;13.90;;;12.40;;
14171;SDS011;7165;52.388;4.928;2023-12-04T06:08:26;15.07;;;13.57;;
14171;SDS011;7165;52.388;4.928;2023-12-04T06:10:52;14.47;;;12.47;;
14171;SDS011;7165;52.388;4.928;2023-12-04T06:13:19;13.13;;;11.37;;
14171;SDS011;7165;52.388;4.928;2023-12-04T06:15:46;13.13;;;11.83;;
14171;SDS011;7165;52.388;4.928;2023-12-04T06:18:13;14.13;;;12.33;;
14171;SDS011;7165;52.388;4.928;2023-12-04T06:20:39;14.27;;;12.47;;
14171;SDS011;7165;52.388;4.928;2023-12-04T06:23:08;14.97;;;13.10;;
14171;SDS011;7165;52.388;4.928;2023-12-04T06:25:35;14.87;;;13.27;;
14171;SDS011;7165;52.388;4.928;2023-12-04T06:28:03;14.83;;;12.63;;
14171;SDS011;7165;52.388;4.928;2023-12-04T06:30:31;15.27;;;12.87;;
14171;SDS011;7165;52.388;4.928;2023-12-04T06:32:58;16.87;;;13.30;;
14171;SDS011;7165;52.388;4.928;2023-12-04T06:35:25;14.60;;;13.10;;
14171;SDS011;7165;52.388;4.928;2023-12-04T06:37:52;14.77;;;13.37;;
14171;SDS011;7165;52.388;4.928;2023-12-04T06:40:22;14.20;;;12.73;;
14171;SDS011;7165;52.388;4.928;2023-12-04T06:42:49;13.60;;;12.20;;
14171;SDS011;7165;52.388;4.928;2023-12-04T06:45:17;13.80;;;12.37;;
14171;SDS011;7165;52.388;4.928;2023-12-04T06:47:45;14.40;;;12.90;;
14171;SDS011;7165;52.388;4.928;2023-12-04T06:50:13;14.93;;;12.23;;
14171;SDS011;7165;52.388;4.928;2023-12-04T06:52:40;14.37;;;11.83;;
14171;SDS011;7165;52.388;4.928;2023-12-04T06:55:07;14.77;;;13.27;;
14171;SDS011;7165;52.388;4.928;2023-12-04T06:57:35;14.67;;;13.10;;
14171;SDS011;7165;52.388;4.928;2023-12-04T07:00:03;14.90;;;12.93;;
14171;SDS011;7165;52.388;4.928;2023-12-04T07:02:31;15.50;;;13.90;;
14171;SDS011;7165;52.388;4.928;2023-12-04T07:04:58;14.10;;;12.70;;
14171;SDS011;7165;52.388;4.928;2023-12-04T07:07:25;14.23;;;12.80;;
14171;SDS011;7165;52.388;4.928;2023-12-04T07:09:52;15.03;;;13.17;;
14171;SDS011;7165;52.388;4.928;2023-12-04T07:12:18;12.40;;;11.27;;
14171;SDS011;7165;52.388;4.928;2023-12-04T07:14:46;14.03;;;12.63;;
14171;SDS011;7165;52.388;4.928;2023-12-04T07:17:13;13.60;;;12.20;;
14171;SDS011;7165;52.388;4.928;2023-12-04T07:19:40;13.33;;;12.10;;
14171;SDS011;7165;52.388;4.928;2023-12-04T07:22:07;12.83;;;11.53;;
14171;SDS011;7165;52.388;4.928;2023-12-04T07:24:34;14.63;;;13.13;;
14171;SDS011;7165;52.388;4.928;2023-12-04T07:27:01;13.23;;;11.90;;
14171;SDS011;7165;52.388;4.928;2023-12-04T07:29:28;13.10;;;11.80;;
14171;SDS011;7165;52.388;4.928;2023-12-04T07:31:56;13.40;;;12.00;;
14171;SDS011;7165;52.388;4.928;2023-12-04T07:34:23;13.53;;;11.40;;
14171;SDS011;7165;52.388;4.928;2023-12-04T07:36:50;12.83;;;11.63;;
14171;SDS011;7165;52.388;4.928;2023-12-04T07:39:17;13.90;;;12.50;;
14171;SDS011;7165;52.388;4.928;2023-12-04T07:41:45;11.77;;;10.67;;
14171;SDS011;7165;52.388;4.928;2023-12-04T07:44:12;13.33;;;11.53;;
14171;SDS011;7165;52.388;4.928;2023-12-04T07:46:39;12.60;;;11.07;;
14171;SDS011;7165;52.388;4.928;2023-12-04T07:49:07;12.97;;;11.67;;
14171;SDS011;7165;52.388;4.928;2023-12-04T07:51:34;11.83;;;10.63;;
14171;SDS011;7165;52.388;4.928;2023-12-04T07:54:00;13.13;;;11.63;;
14171;SDS011;7165;52.388;4.928;2023-12-04T07:56:27;11.83;;;10.73;;
14171;SDS011;7165;52.388;4.928;2023-12-04T07:58:55;12.60;;;11.37;;
14171;SDS011;7165;52.388;4.928;2023-12-04T08:01:23;12.30;;;11.20;;
14171;SDS011;7165;52.388;4.928;2023-12-04T08:03:50;11.97;;;10.63;;
14171;SDS011;7165;52.388;4.928;2023-12-04T08:06:18;11.80;;;10.70;;
14171;SDS011;7165;52.388;4.928;2023-12-04T08:08:44;12.23;;;10.93;;
14171;SDS011;7165;52.388;4.928;2023-12-04T08:11:10;12.23;;;11.03;;
14171;SDS011;7165;52.388;4.928;2023-12-04T08:13:38;12.47;;;11.27;;
14171;SDS011;7165;52.388;4.928;2023-12-04T08:16:12;11.83;;;10.63;;
14171;SDS011;7165;52.388;4.928;2023-12-04T08:18:39;11.83;;;10.70;;
14171;SDS011;7165;52.388;4.928;2023-12-04T08:21:06;12.17;;;10.97;;
14171;SDS011;7165;52.388;4.928;2023-12-04T08:23:35;10.83;;;9.83;;
14171;SDS011;7165;52.388;4.928;2023-12-04T08:26:02;10.67;;;9.67;;
14171;SDS011;7165;52.388;4.928;2023-12-04T08:28:30;10.93;;;9.83;;
14171;SDS011;7165;52.388;4.928;2023-12-04T08:30:57;11.53;;;10.40;;
14171;SDS011;7165;52.388;4.928;2023-12-04T08:33:23;11.93;;;10.77;;
14171;SDS011;7165;52.388;4.928;2023-12-04T08:35:50;11.77;;;10.63;;
14171;SDS011;7165;52.388;4.928;2023-12-04T08:38:17;12.27;;;11.07;;
14171;SDS011;7165;52.388;4.928;2023-12-04T08:40:45;10.57;;;9.57;;
14171;SDS011;7165;52.388;4.928;2023-12-04T08:43:13;10.93;;;9.87;;
14171;SDS011;7165;52.388;4.928;2023-12-04T08:45:39;11.13;;;10.13;;
14171;SDS011;7165;52.388;4.928;2023-12-04T08:48:06;11.30;;;10.30;;
14171;SDS011;7165;52.388;4.928;2023-12-04T08:50:34;11.30;;;10.30;;
14171;SDS011;7165;52.388;4.928;2023-12-04T08:53:02;10.77;;;9.83;;
14171;SDS011;7165;52.388;4.928;2023-12-04T08:55:28;11.43;;;10.37;;
14171;SDS011;7165;52.388;4.928;2023-12-04T08:57:56;9.93;;;9.03;;
14171;SDS011;7165;52.388;4.928;2023-12-04T09:00:23;10.20;;;9.30;;
14171;SDS011;7165;52.388;4.928;2023-12-04T09:02:50;9.57;;;8.77;;
14171;SDS011;7165;52.388;4.928;2023-12-04T09:05:18;9.97;;;9.00;;
14171;SDS011;7165;52.388;4.928;2023-12-04T09:07:44;9.93;;;9.03;;
14171;SDS011;7165;52.388;4.928;2023-12-04T09:10:11;10.73;;;9.73;;
14171;SDS011;7165;52.388;4.928;2023-12-04T09:12:39;12.13;;;10.33;;
14171;SDS011;7165;52.388;4.928;2023-12-04T09:15:07;10.73;;;9.83;;
14171;SDS011;7165;52.388;4.928;2023-12-04T09:17:34;11.13;;;10.13;;
14171;SDS011;7165;52.388;4.928;2023-12-04T09:20:01;10.20;;;9.30;;
14171;SDS011;7165;52.388;4.928;2023-12-04T09:22:30;10.10;;;9.07;;
14171;SDS011;7165;52.388;4.928;2023-12-04T09:24:57;10.27;;;9.27;;
14171;SDS011;7165;52.388;4.928;2023-12-04T09:27:24;10.37;;;9.50;;
14171;SDS011;7165;52.388;4.928;2023-12-04T09:29:51;9.70;;;8.73;;
14171;SDS011;7165;52.388;4.928;2023-12-04T09:32:19;10.10;;;9.10;;
14171;SDS011;7165;52.388;4.928;2023-12-04T09:34:45;9.07;;;8.27;;
14171;SDS011;7165;52.388;4.928;2023-12-04T09:37:12;9.20;;;8.30;;
14171;SDS011;7165;52.388;4.928;2023-12-04T09:39:39;8.97;;;8.27;;
14171;SDS011;7165;52.388;4.928;2023-12-04T09:42:07;10.07;;;9.17;;
14171;SDS011;7165;52.388;4.928;2023-12-04T09:44:34;10.00;;;9.07;;
14171;SDS011;7165;52.388;4.928;2023-12-04T09:47:03;9.50;;;8.70;;
14171;SDS011;7165;52.388;4.928;2023-12-04T09:49:32;9.60;;;8.80;;
14171;SDS011;7165;52.388;4.928;2023-12-04T09:51:59;9.57;;;8.67;;
14171;SDS011;7165;52.388;4.928;2023-12-04T09:54:27;9.43;;;8.57;;
14171;SDS011;7165;52.388;4.928;2023-12-04T09:56:56;9.30;;;8.50;;
14171;SDS011;7165;52.388;4.928;2023-12-04T09:59:23;8.90;;;8.10;;
14171;SDS011;7165;52.388;4.928;2023-12-04T10:01:51;9.43;;;8.53;;
14171;SDS011;7165;52.388;4.928;2023-12-04T10:04:18;8.93;;;8.23;;
14171;SDS011;7165;52.388;4.928;2023-12-04T10:06:47;8.70;;;7.83;;
14171;SDS011;7165;52.388;4.928;2023-12-04T10:09:17;9.53;;;8.63;;
14171;SDS011;7165;52.388;4.928;2023-12-04T10:11:44;9.67;;;8.67;;
14171;SDS011;7165;52.388;4.928;2023-12-04T10:14:14;8.57;;;7.87;;
14171;SDS011;7165;52.388;4.928;2023-12-04T10:16:42;9.40;;;8.50;;
14171;SDS011;7165;52.388;4.928;2023-12-04T10:19:16;9.20;;;8.23;;
14171;SDS011;7165;52.388;4.928;2023-12-04T10:21:45;8.63;;;7.90;;
14171;SDS011;7165;52.388;4.928;2023-12-04T10:24:26;9.50;;;8.67;;
14171;SDS011;7165;52.388;4.928;2023-12-04T10:26:54;8.83;;;8.00;;
14171;SDS011;7165;52.388;4.928;2023-12-04T10:29:21;8.80;;;7.90;;
14171;SDS011;7165;52.388;4.928;2023-12-04T10:31:48;8.53;;;7.73;;
14171;SDS011;7165;52.388;4.928;2023-12-04T10:34:17;9.00;;;8.17;;
14171;SDS011;7165;52.388;4.928;2023-12-04T10:36:45;8.40;;;7.70;;
14171;SDS011;7165;52.388;4.928;2023-12-04T10:39:13;9.70;;;8.77;;
14171;SDS011;7165;52.388;4.928;2023-12-04T10:41:41;8.30;;;7.60;;
14171;SDS011;7165;52.388;4.928;2023-12-04T10:44:07;9.63;;;8.80;;
14171;SDS011;7165;52.388;4.928;2023-12-04T10:46:34;8.23;;;7.53;;
14171;SDS011;7165;52.388;4.928;2023-12-04T10:49:03;8.70;;;7.90;;
14171;SDS011;7165;52.388;4.928;2023-12-04T10:51:30;9.53;;;8.50;;
14171;SDS011;7165;52.388;4.928;2023-12-04T10:53:57;8.87;;;8.07;;
14171;SDS011;7165;52.388;4.928;2023-12-04T10:56:30;8.97;;;8.17;;
14171;SDS011;7165;52.388;4.928;2023-12-04T10:59:01;8.50;;;7.80;;
14171;SDS011;7165;52.388;4.928;2023-12-04T11:01:33;8.60;;;7.80;;
14171;SDS011;7165;52.388;4.928;2023-12-04T11:03:59;8.60;;;7.80;;
14171;SDS011;7165;52.388;4.928;2023-12-04T11:06:32;8.67;;;7.87;;
14171;SDS011;7165;52.388;4.928;2023-12-04T11:09:01;7.97;;;7.27;;
14171;SDS011;7165;52.388;4.928;2023-12-04T11:11:32;8.30;;;7.50;;
14171;SDS011;7165;52.388;4.928;2023-12-04T11:14:03;8.47;;;7.50;;
14171;SDS011;7165;52.388;4.928;2023-12-04T11:16:33;8.23;;;7.43;;
14171;SDS011;7165;52.388;4.928;2023-12-04T11:21:50;9.50;;;8.60;;
14171;SDS011;7165;52.388;4.928;2023-12-04T11:24:19;7.93;;;7.33;;
14171;SDS011;7165;52.388;4.928;2023-12-04T11:26:49;8.23;;;7.53;;
14171;SDS011;7165;52.388;4.928;2023-12-04T11:29:16;8.10;;;7.37;;
14171;SDS011;7165;52.388;4.928;2023-12-04T11:31:44;8.70;;;8.00;;
14171;SDS011;7165;52.388;4.928;2023-12-04T11:34:11;9.13;;;7.37;;
14171;SDS011;7165;52.388;4.928;2023-12-04T11:36:38;10.03;;;8.57;;
14171;SDS011;7165;52.388;4.928;2023-12-04T11:39:08;8.70;;;7.90;;
14171;SDS011;7165;52.388;4.928;2023-12-04T11:41:35;8.63;;;7.73;;
14171;SDS011;7165;52.388;4.928;2023-12-04T11:44:05;8.77;;;7.97;;
14171;SDS011;7165;52.388;4.928;2023-12-04T11:46:38;9.70;;;8.80;;
14171;SDS011;7165;52.388;4.928;2023-12-04T11:51:55;9.37;;;8.47;;
14171;SDS011;7165;52.388;4.928;2023-12-04T11:54:22;9.20;;;8.00;;
14171;SDS011;7165;52.388;4.928;2023-12-04T11:57:00;9.33;;;8.53;;
14171;SDS011;7165;52.388;4.928;2023-12-04T11:59:44;9.17;;;8.37;;
14171;SDS011;7165;52.388;4.928;2023-12-04T12:02:11;9.37;;;8.47;;
14171;SDS011;7165;52.388;4.928;2023-12-04T12:04:37;10.10;;;9.10;;
14171;SDS011;7165;52.388;4.928;2023-12-04T12:07:04;10.67;;;9.57;;
14171;SDS011;7165;52.388;4.928;2023-12-04T12:09:32;10.17;;;9.27;;
14171;SDS011;7165;52.388;4.928;2023-12-04T12:11:59;9.97;;;8.93;;
14171;SDS011;7165;52.388;4.928;2023-12-04T12:14:28;10.00;;;9.10;;
14171;SDS011;7165;52.388;4.928;2023-12-04T12:16:57;9.37;;;8.47;;
14171;SDS011;7165;52.388;4.928;2023-12-04T12:19:25;9.60;;;8.80;;
14171;SDS011;7165;52.388;4.928;2023-12-04T12:21:52;10.23;;;9.33;;
14171;SDS011;7165;52.388;4.928;2023-12-04T12:24:19;9.50;;;8.60;;
14171;SDS011;7165;52.388;4.928;2023-12-04T12:26:46;9.70;;;8.70;;
14171;SDS011;7165;52.388;4.928;2023-12-04T12:29:13;10.60;;;9.60;;
14171;SDS011;7165;52.388;4.928;2023-12-04T12:31:40;11.00;;;9.93;;
14171;SDS011;7165;52.388;4.928;2023-12-04T12:34:08;9.20;;;8.40;;
14171;SDS011;7165;52.388;4.928;2023-12-04T12:36:35;9.83;;;8.93;;
14171;SDS011;7165;52.388;4.928;2023-12-04T12:39:02;10.30;;;9.20;;
14171;SDS011;7165;52.388;4.928;2023-12-04T12:41:29;10.07;;;9.17;;
14171;SDS011;7165;52.388;4.928;2023-12-04T12:43:56;9.53;;;8.63;;
14171;SDS011;7165;52.388;4.928;2023-12-04T12:46:25;10.70;;;9.53;;
14171;SDS011;7165;52.388;4.928;2023-12-04T12:48:52;10.70;;;9.60;;
14171;SDS011;7165;52.388;4.928;2023-12-04T12:51:20;10.50;;;9.53;;
14171;SDS011;7165;52.388;4.928;2023-12-04T12:53:47;10.77;;;9.77;;
14171;SDS011;7165;52.388;4.928;2023-12-04T12:56:14;12.17;;;10.07;;
14171;SDS011;7165;52.388;4.928;2023-12-04T12:58:41;12.53;;;10.37;;
14171;SDS011;7165;52.388;4.928;2023-12-04T13:01:09;10.73;;;9.83;;
14171;SDS011;7165;52.388;4.928;2023-12-04T13:03:36;11.10;;;10.10;;
14171;SDS011;7165;52.388;4.928;2023-12-04T13:06:04;10.73;;;9.73;;
14171;SDS011;7165;52.388;4.928;2023-12-04T13:08:32;10.77;;;9.77;;
14171;SDS011;7165;52.388;4.928;2023-12-04T13:10:59;11.40;;;10.40;;
14171;SDS011;7165;52.388;4.928;2023-12-04T13:13:26;10.60;;;9.63;;
14171;SDS011;7165;52.388;4.928;2023-12-04T13:15:53;10.53;;;9.60;;
14171;SDS011;7165;52.388;4.928;2023-12-04T13:18:20;11.00;;;9.93;;
14171;SDS011;7165;52.388;4.928;2023-12-04T13:20:47;11.43;;;10.27;;
14171;SDS011;7165;52.388;4.928;2023-12-04T13:23:14;10.80;;;9.90;;
14171;SDS011;7165;52.388;4.928;2023-12-04T13:25:42;10.80;;;9.80;;
14171;SDS011;7165;52.388;4.928;2023-12-04T13:28:08;10.77;;;9.77;;
14171;SDS011;7165;52.388;4.928;2023-12-04T13:30:35;11.50;;;10.43;;
14171;SDS011;7165;52.388;4.928;2023-12-04T13:33:02;11.77;;;10.77;;
14171;SDS011;7165;52.388;4.928;2023-12-04T13:35:29;11.70;;;10.70;;
14171;SDS011;7165;52.388;4.928;2023-12-04T13:37:56;11.17;;;9.97;;
14171;SDS011;7165;52.388;4.928;2023-12-04T13:40:24;12.53;;;11.33;;
14171;SDS011;7165;52.388;4.928;2023-12-04T13:42:54;13.93;;;12.00;;
14171;SDS011;7165;52.388;4.928;2023-12-04T13:45:38;13.60;;;12.23;;
14171;SDS011;7165;52.388;4.928;2023-12-04T13:48:05;11.97;;;10.77;;
14171;SDS011;7165;52.388;4.928;2023-12-04T13:50:32;12.60;;;11.30;;
14171;SDS011;7165;52.388;4.928;2023-12-04T13:52:59;14.07;;;11.63;;
14171;SDS011;7165;52.388;4.928;2023-12-04T13:55:26;12.60;;;11.47;;
14171;SDS011;7165;52.388;4.928;2023-12-04T13:58:22;12.43;;;10.07;;
14171;SDS011;7165;52.388;4.928;2023-12-04T14:01:04;12.50;;;11.50;;
14171;SDS011;7165;52.388;4.928;2023-12-04T14:03:38;13.13;;;11.93;;
14171;SDS011;7165;52.388;4.928;2023-12-04T14:06:06;12.27;;;11.13;;
14171;SDS011;7165;52.388;4.928;2023-12-04T14:08:33;11.93;;;10.73;;
14171;SDS011;7165;52.388;4.928;2023-12-04T14:10:59;12.47;;;11.27;;
14171;SDS011;7165;52.388;4.928;2023-12-04T14:13:28;13.07;;;11.77;;
14171;SDS011;7165;52.388;4.928;2023-12-04T14:15:54;12.73;;;11.23;;
14171;SDS011;7165;52.388;4.928;2023-12-04T14:18:22;12.63;;;11.43;;
14171;SDS011;7165;52.388;4.928;2023-12-04T14:20:49;13.23;;;12.00;;
14171;SDS011;7165;52.388;4.928;2023-12-04T14:23:16;12.37;;;11.17;;
14171;SDS011;7165;52.388;4.928;2023-12-04T14:25:43;15.67;;;12.23;;
14171;SDS011;7165;52.388;4.928;2023-12-04T14:28:10;12.60;;;11.37;;
14171;SDS011;7165;52.388;4.928;2023-12-04T14:30:39;13.07;;;11.87;;
14171;SDS011;7165;52.388;4.928;2023-12-04T14:33:06;13.53;;;12.13;;
14171;SDS011;7165;52.388;4.928;2023-12-04T14:35:34;12.83;;;11.57;;
14171;SDS011;7165;52.388;4.928;2023-12-04T14:38:01;13.80;;;11.47;;
14171;SDS011;7165;52.388;4.928;2023-12-04T14:40:29;12.10;;;10.87;;
14171;SDS011;7165;52.388;4.928;2023-12-04T14:42:56;12.70;;;11.50;;
14171;SDS011;7165;52.388;4.928;2023-12-04T14:45:23;13.33;;;11.23;;
14171;SDS011;7165;52.388;4.928;2023-12-04T14:47:51;13.57;;;11.80;;